Time;durP1;ratioP1;P1;durP2;ratioP2;P2;SDS_P1;SDS_P2;PMS_P1;PMS_P2;Temp;Humidity;BMP_temperature;BMP_pressure;BME280_temperature;BME280_humidity;BME280_pressure;Samples;Min_cycle;Max_cycle;Signal;HPM_P1;HPM_P2
2023/12/14 00:00:15;;;;;;;1.33;1.25;;;;;;;7.38;86.63;95611.47;4954092;29;20058;-79
2023/12/14 00:02:43;;;;;;;2.20;1.80;;;;;;;7.36;87.36;95603.06;4954669;29;20066;-78
2023/12/14 00:05:10;;;;;;;1.60;1.50;;;;;;;7.31;87.17;95602.84;4954550;29;20475;-79
2023/12/14 00:07:38;;;;;;;2.85;1.80;;;;;;;7.30;87.18;95610.78;4954091;29;20082;-78
2023/12/14 00:10:07;;;;;;;0.82;0.82;;;;;;;7.27;85.89;95614.56;4954069;29;20541;-78
2023/12/14 00:12:36;;;;;;;1.85;1.23;;;;;;;7.21;85.47;95615.28;4954086;29;20407;-79
2023/12/14 00:15:04;;;;;;;1.27;1.17;;;;;;;7.19;85.14;95609.50;4955636;29;20138;-79
2023/12/14 00:17:31;;;;;;;1.42;1.30;;;;;;;7.17;84.77;95620.06;4954485;29;20408;-78
2023/12/14 00:19:59;;;;;;;1.88;1.33;;;;;;;7.21;86.64;95623.91;4954346;29;20147;-79
2023/12/14 00:22:27;;;;;;;1.65;1.23;;;;;;;7.24;87.52;95622.72;4953985;29;20138;-78
2023/12/14 00:24:54;;;;;;;1.65;1.55;;;;;;;7.21;86.69;95623.06;4953912;29;20134;-79
2023/12/14 00:27:22;;;;;;;1.23;1.13;;;;;;;7.21;85.57;95628.25;4954021;29;20063;-78
2023/12/14 00:29:51;;;;;;;1.40;1.30;;;;;;;7.23;86.86;95628.88;4953815;29;20052;-78
2023/12/14 00:32:18;;;;;;;2.35;1.30;;;;;;;7.28;88.28;95642.13;4954211;29;20129;-79
2023/12/14 00:34:46;;;;;;;2.17;1.50;;;;;;;7.27;88.81;95642.31;4954034;29;20102;-79
2023/12/14 00:37:13;;;;;;;1.20;1.10;;;;;;;7.26;88.15;95641.50;4953885;29;20106;-78
2023/12/14 00:39:41;;;;;;;1.58;1.48;;;;;;;7.30;88.97;95647.91;4953503;29;20043;-79
2023/12/14 00:42:09;;;;;;;2.20;1.35;;;;;;;7.31;89.85;95651.31;4954177;29;20055;-79
2023/12/14 00:44:36;;;;;;;1.45;1.35;;;;;;;7.28;89.00;95660.28;4954235;29;20098;-78
2023/12/14 00:47:05;;;;;;;2.67;1.10;;;;;;;7.18;87.18;95664.97;4955410;28;20550;-78
2023/12/14 00:49:33;;;;;;;1.10;1.10;;;;;;;7.16;86.73;95672.13;4957419;29;20055;-79
2023/12/14 00:52:02;;;;;;;1.73;1.63;;;;;;;7.15;87.63;95673.09;4957620;29;20082;-79
2023/12/14 00:54:29;;;;;;;1.23;1.13;;;;;;;7.13;86.44;95673.28;4957370;29;20661;-78
2023/12/14 00:56:57;;;;;;;1.27;1.20;;;;;;;7.09;84.73;95681.63;4957504;29;20146;-78
2023/12/14 00:59:24;;;;;;;2.17;1.38;;;;;;;7.07;85.53;95681.78;4957504;29;20463;-79
2023/12/14 01:01:52;;;;;;;3.05;1.45;;;;;;;7.08;86.52;95685.97;4958017;29;20562;-78
2023/12/14 01:04:21;;;;;;;1.52;1.42;;;;;;;7.12;87.68;95682.03;4958216;29;20062;-79
2023/12/14 01:06:49;;;;;;;2.38;1.88;;;;;;;7.17;88.20;95689.28;4977869;29;20047;-80
2023/12/14 01:09:16;;;;;;;1.60;1.50;;;;;;;7.19;88.81;95697.69;4967167;29;20052;-79
2023/12/14 01:11:44;;;;;;;1.63;1.52;;;;;;;7.18;88.76;95685.72;4957742;29;20055;-79
2023/12/14 01:14:12;;;;;;;2.35;1.60;;;;;;;7.18;88.27;95701.25;4957679;29;20106;-78
2023/12/14 01:16:40;;;;;;;2.10;1.90;;;;;;;7.23;89.05;95701.50;4957573;29;20051;-79
2023/12/14 01:19:07;;;;;;;1.95;1.75;;;;;;;7.26;90.44;95708.13;4957075;29;20047;-79
2023/12/14 01:21:37;;;;;;;1.75;1.58;;;;;;;7.24;89.02;95716.09;4957099;29;20496;-78
2023/12/14 01:24:05;;;;;;;2.13;1.90;;;;;;;7.23;89.25;95720.47;4956944;29;20051;-78
2023/12/14 01:26:33;;;;;;;2.05;1.70;;;;;;;7.20;87.38;95725.22;4956889;29;20423;-78
2023/12/14 01:29:00;;;;;;;3.42;2.08;;;;;;;7.17;87.05;95726.41;4956965;29;20051;-78
2023/12/14 01:31:28;;;;;;;1.98;1.88;;;;;;;7.19;87.73;95726.19;4956870;29;20047;-79
2023/12/14 01:33:56;;;;;;;2.13;1.92;;;;;;;7.19;88.09;95729.63;4956650;29;20051;-79
2023/12/14 01:36:24;;;;;;;2.47;2.13;;;;;;;7.20;88.02;95735.59;4956656;29;20062;-79
2023/12/14 01:38:53;;;;;;;2.97;2.33;;;;;;;7.23;89.92;95736.03;4956163;29;20138;-78
2023/12/14 01:41:21;;;;;;;2.33;2.13;;;;;;;7.25;89.70;95730.66;4956602;29;20081;-78
2023/12/14 01:43:48;;;;;;;2.72;2.30;;;;;;;7.25;89.91;95741.03;4956509;29;20052;-78
2023/12/14 01:46:16;;;;;;;3.25;2.95;;;;;;;7.29;89.89;95747.47;4956583;29;20051;-79
2023/12/14 01:48:44;;;;;;;4.03;2.65;;;;;;;7.23;88.17;95745.59;4956260;29;20500;-78
2023/12/14 01:51:11;;;;;;;2.92;2.70;;;;;;;7.18;86.98;95748.75;4956815;29;20054;-78
2023/12/14 01:53:40;;;;;;;5.00;3.00;;;;;;;7.19;88.99;95752.97;4956364;29;20087;-78
2023/12/14 01:56:10;;;;;;;3.45;2.88;;;;;;;7.22;90.41;95755.19;4956144;29;20055;-79
2023/12/14 01:58:37;;;;;;;6.00;3.60;;;;;;;7.22;89.82;95754.38;4954863;28;20055;-80
2023/12/14 02:01:11;;;;;;;4.45;3.58;;;;;;;7.25;89.48;95748.81;4956402;29;20051;-79
2023/12/14 02:03:45;;;;;;;3.47;3.20;;;;;;;7.25;90.17;95763.59;4956497;29;20062;-79
2023/12/14 02:06:12;;;;;;;4.72;4.07;;;;;;;7.25;90.72;95764.38;4956419;29;20133;-78
2023/12/14 02:08:40;;;;;;;4.70;3.03;;;;;;;7.29;90.42;95767.44;4956029;29;20049;-79
2023/12/14 02:11:09;;;;;;;4.20;3.53;;;;;;;7.30;89.20;95775.03;4956489;29;20058;-79
2023/12/14 02:13:37;;;;;;;5.20;4.03;;;;;;;7.33;89.71;95777.28;4955874;29;20562;-79
2023/12/14 02:16:05;;;;;;;3.88;3.38;;;;;;;7.31;89.70;95774.06;4955897;29;20051;-78
2023/12/14 02:18:33;;;;;;;4.43;3.45;;;;;;;7.32;90.11;95780.03;4955714;29;20051;-79
2023/12/14 02:21:00;;;;;;;4.35;3.95;;;;;;;7.34;90.01;95789.25;4956152;29;20062;-79
2023/12/14 02:23:29;;;;;;;4.50;3.58;;;;;;;7.34;89.44;95784.06;4955711;29;20086;-78
2023/12/14 02:25:57;;;;;;;6.22;3.58;;;;;;;7.35;88.46;95783.09;4955575;29;20110;-78
2023/12/14 02:28:24;;;;;;;3.22;2.92;;;;;;;7.31;87.55;95786.22;4955836;29;20074;-79
2023/12/14 02:30:52;;;;;;;4.70;2.80;;;;;;;7.27;86.07;95792.75;4955955;29;20047;-79
2023/12/14 02:33:20;;;;;;;3.90;2.88;;;;;;;7.26;86.04;95797.16;4955540;29;20189;-79
2023/12/14 02:35:48;;;;;;;7.07;3.08;;;;;;;7.28;86.53;95805.56;4954009;29;20051;-79
2023/12/14 02:38:16;;;;;;;4.60;3.63;;;;;;;7.29;88.06;95801.97;4954864;29;20098;-79
2023/12/14 02:40:45;;;;;;;4.25;3.50;;;;;;;7.29;86.72;95808.94;4955796;29;20110;-78
2023/12/14 02:43:12;;;;;;;2.63;2.42;;;;;;;7.22;84.87;95808.88;4954908;29;20059;-79
2023/12/14 02:45:40;;;;;;;7.10;3.83;;;;;;;7.18;85.41;95810.19;4954375;29;20050;-79
2023/12/14 02:48:08;;;;;;;2.78;2.53;;;;;;;7.21;86.46;95809.84;4953997;29;20106;-79
2023/12/14 02:50:35;;;;;;;5.85;3.35;;;;;;;7.25;88.09;95815.47;4955457;29;20467;-78
2023/12/14 02:53:03;;;;;;;4.30;2.50;;;;;;;7.27;87.55;95813.50;4954428;29;20491;-78
2023/12/14 02:55:31;;;;;;;5.85;3.42;;;;;;;7.30;87.24;95823.50;4954916;29;20051;-79
2023/12/14 02:57:59;;;;;;;6.82;3.33;;;;;;;7.34;87.63;95824.75;4954666;29;20051;-78
2023/12/14 03:00:26;;;;;;;4.10;2.90;;;;;;;7.33;86.64;95831.75;4955243;29;20133;-78
2023/12/14 03:02:54;;;;;;;4.15;2.90;;;;;;;7.33;85.85;95829.16;4953352;29;20079;-79
2023/12/14 03:05:21;;;;;;;5.20;4.18;;;;;;;7.32;87.37;95832.72;4954978;29;20471;-78
2023/12/14 03:07:49;;;;;;;5.38;4.22;;;;;;;7.33;86.84;95833.53;4954866;29;20059;-79
2023/12/14 03:10:16;;;;;;;8.32;3.58;;;;;;;7.29;85.94;95843.47;4954986;28;20106;-79
2023/12/14 03:12:44;;;;;;;7.38;3.72;;;;;;;7.28;86.88;95833.25;4954843;29;20121;-78
2023/12/14 03:15:13;;;;;;;4.53;4.03;;;;;;;7.33;88.54;95841.34;4955027;29;20082;-79
2023/12/14 03:17:41;;;;;;;7.35;4.13;;;;;;;7.36;89.56;95844.34;4954639;29;20051;-79
2023/12/14 03:20:09;;;;;;;5.72;4.38;;;;;;;7.39;89.64;95844.00;4954476;29;20435;-78
2023/12/14 03:22:38;;;;;;;6.57;4.70;;;;;;;7.39;88.97;95845.78;4954841;29;20055;-79
2023/12/14 03:25:07;;;;;;;5.35;4.45;;;;;;;7.38;88.48;95847.56;4954822;29;20093;-79
2023/12/14 03:27:35;;;;;;;7.82;5.57;;;;;;;7.41;89.25;95847.22;4954558;29;20106;-79
2023/12/14 03:30:07;;;;;;;8.18;5.63;;;;;;;7.42;89.94;95848.03;4954421;29;20476;-79
2023/12/14 03:32:36;;;;;;;7.55;5.68;;;;;;;7.45;90.80;95859.84;4954697;28;20274;-79
2023/12/14 03:35:08;;;;;;;8.05;5.95;;;;;;;7.43;91.68;95860.84;4954507;29;20052;-79
2023/12/14 03:37:36;;;;;;;9.00;6.00;;;;;;;7.45;92.44;95862.44;4954382;29;20149;-80
2023/12/14 03:40:05;;;;;;;7.40;5.22;;;;;;;7.43;92.33;95867.78;4954705;28;20051;-79
2023/12/14 03:42:33;;;;;;;10.13;5.93;;;;;;;7.45;92.19;95875.41;4954732;29;20050;-80
2023/12/14 03:45:01;;;;;;;5.85;4.80;;;;;;;7.45;91.96;95878.00;4954131;29;20055;-79
2023/12/14 03:47:28;;;;;;;8.38;4.65;;;;;;;7.42;91.05;95882.56;4954549;29;20401;-79
2023/12/14 03:49:57;;;;;;;7.35;4.97;;;;;;;7.39;89.51;95889.88;4954288;29;20503;-79
2023/12/14 03:52:25;;;;;;;6.00;4.78;;;;;;;7.35;88.47;95886.06;4954748;29;20047;-79
2023/12/14 03:54:53;;;;;;;6.57;5.30;;;;;;;7.35;89.59;95891.25;4954422;29;20186;-79
2023/12/14 03:57:20;;;;;;;6.18;5.43;;;;;;;7.40;90.83;95902.69;4954440;29;20066;-79
2023/12/14 03:59:48;;;;;;;5.95;4.90;;;;;;;7.41;91.53;95899.13;4953837;29;20546;-79
2023/12/14 04:02:16;;;;;;;13.40;7.60;;;;;;;7.45;92.82;95904.75;4954516;29;20275;-79
2023/12/14 04:04:45;;;;;;;7.97;5.97;;;;;;;7.50;92.81;95906.78;4954556;29;20055;-78
2023/12/14 04:07:14;;;;;;;8.70;6.30;;;;;;;7.50;92.73;95918.00;4954398;29;20047;-78
2023/12/14 04:09:41;;;;;;;7.97;5.80;;;;;;;7.49;92.29;95920.78;4954730;29;20051;-80
2023/12/14 04:12:09;;;;;;;6.70;5.30;;;;;;;7.49;91.98;95931.16;4954299;29;20555;-80
2023/12/14 04:14:37;;;;;;;6.90;4.75;;;;;;;7.47;91.57;95931.31;4954278;29;20086;-78
2023/12/14 04:17:04;;;;;;;6.47;5.72;;;;;;;7.47;91.71;95940.91;4954475;29;20107;-79
2023/12/14 04:19:32;;;;;;;6.80;4.95;;;;;;;7.41;90.89;95940.66;4954166;29;20047;-79
2023/12/14 04:22:00;;;;;;;7.63;5.75;;;;;;;7.42;90.74;95942.25;4955897;28;20442;-79
2023/12/14 04:24:30;;;;;;;6.13;5.30;;;;;;;7.45;90.96;95945.47;4958099;29;20051;-79
2023/12/14 04:26:57;;;;;;;6.55;5.10;;;;;;;7.41;89.96;95939.81;4958128;29;20051;-79
2023/12/14 04:29:25;;;;;;;7.05;5.13;;;;;;;7.37;89.49;95948.97;4957935;29;20492;-78
2023/12/14 04:31:53;;;;;;;12.27;5.35;;;;;;;7.38;89.42;95953.94;4958282;29;20055;-79
2023/12/14 04:34:21;;;;;;;6.28;5.22;;;;;;;7.38;89.25;95951.34;4957978;29;20044;-79
2023/12/14 04:36:49;;;;;;;8.35;5.10;;;;;;;7.36;89.14;95962.91;4957858;29;20422;-79
2023/12/14 04:39:17;;;;;;;10.27;5.82;;;;;;;7.39;90.30;95958.19;4957437;29;20063;-79
2023/12/14 04:41:46;;;;;;;8.70;5.95;;;;;;;7.45;91.17;95974.81;4957773;29;20137;-78
2023/12/14 04:44:14;;;;;;;6.15;5.45;;;;;;;7.47;91.64;95966.84;4957509;29;20051;-78
2023/12/14 04:46:42;;;;;;;6.18;5.00;;;;;;;7.46;91.01;95978.22;4957670;29;20057;-79
2023/12/14 04:49:09;;;;;;;7.13;5.53;;;;;;;7.47;90.97;95972.03;4957310;29;20051;-78
2023/12/14 04:51:37;;;;;;;8.88;5.25;;;;;;;7.49;91.48;95976.06;4957525;29;20058;-79
2023/12/14 04:54:05;;;;;;;6.93;5.60;;;;;;;7.50;90.74;95976.88;4957616;29;20122;-79
2023/12/14 04:56:33;;;;;;;8.30;6.18;;;;;;;7.51;91.42;95973.31;4957417;29;20504;-79
2023/12/14 04:59:02;;;;;;;7.25;5.65;;;;;;;7.52;92.34;95993.06;4956941;29;20055;-77
2023/12/14 05:01:30;;;;;;;9.70;7.20;;;;;;;7.50;92.39;95985.47;4957129;29;20064;-77
2023/12/14 05:04:01;;;;;;;8.15;6.18;;;;;;;7.48;92.62;95991.81;4957125;29;20106;-77
2023/12/14 05:06:28;;;;;;;8.43;7.10;;;;;;;7.49;92.79;95998.63;4956856;29;20047;-77
2023/12/14 05:08:57;;;;;;;7.38;6.18;;;;;;;7.49;92.26;96007.22;4957111;29;20110;-76
2023/12/14 05:11:25;;;;;;;10.95;7.47;;;;;;;7.50;92.38;96008.84;4957055;29;20078;-77
2023/12/14 05:13:52;;;;;;;7.13;6.43;;;;;;;7.52;92.26;96006.03;4960167;28;20055;-76
2023/12/14 05:16:21;;;;;;;9.40;6.97;;;;;;;7.55;93.08;96008.31;4961809;28;20489;-77
2023/12/14 05:18:49;;;;;;;9.27;6.57;;;;;;;7.57;92.92;96014.94;4957175;29;20099;-77
2023/12/14 05:21:17;;;;;;;10.95;7.30;;;;;;;7.59;93.35;96014.75;4956979;29;20058;-77
2023/12/14 05:23:46;;;;;;;9.05;7.43;;;;;;;7.59;93.34;96014.75;4957381;28;20047;-77
2023/12/14 05:26:13;;;;;;;7.97;6.68;;;;;;;7.58;92.69;96015.72;4960231;28;20047;-79
2023/12/14 05:28:41;;;;;;;11.02;8.07;;;;;;;7.53;90.94;96015.47;4967166;28;20035;-79
2023/12/14 05:31:09;;;;;;;10.63;8.18;;;;;;;7.50;90.82;96021.81;4986332;28;20054;-78
2023/12/14 05:33:38;;;;;;;9.63;7.82;;;;;;;7.53;92.04;96029.22;4992894;28;20055;-78
2023/12/14 05:36:10;;;;;;;12.80;8.45;;;;;;;7.55;92.48;96044.63;4986218;28;20050;-80
2023/12/14 05:38:39;;;;;;;8.77;7.18;;;;;;;7.52;92.13;96039.78;4976119;28;20396;-79
2023/12/14 05:41:07;;;;;;;8.85;6.25;;;;;;;7.51;91.30;96043.38;4963438;28;20306;-79
2023/12/14 05:43:36;;;;;;;9.70;6.85;;;;;;;7.46;90.35;96061.28;4961781;28;20055;-80
2023/12/14 05:46:04;;;;;;;7.30;5.82;;;;;;;7.40;88.86;96053.19;4956417;29;20462;-79
2023/12/14 05:48:32;;;;;;;10.55;7.38;;;;;;;7.40;89.70;96066.16;4956493;29;20103;-80
2023/12/14 05:51:01;;;;;;;8.93;6.75;;;;;;;7.38;89.08;96070.72;4956545;29;20043;-79
2023/12/14 05:53:29;;;;;;;10.98;7.68;;;;;;;7.39;90.18;96069.75;4956790;29;20074;-78
2023/12/14 05:55:56;;;;;;;9.15;7.45;;;;;;;7.40;90.04;96078.34;4958263;28;20043;-80
2023/12/14 05:58:24;;;;;;;7.93;6.57;;;;;;;7.39;89.15;96071.50;4957196;28;20126;-79
2023/12/14 06:00:52;;;;;;;10.00;6.78;;;;;;;7.39;90.09;96082.72;4961851;28;20051;-77
2023/12/14 06:03:20;;;;;;;34.97;14.20;;;;;;;7.40;91.72;96084.31;4972718;28;20054;-80
2023/12/14 06:05:48;;;;;;;30.50;18.48;;;;;;;7.42;92.08;96095.34;4957561;28;20106;-79
2023/12/14 06:08:17;;;;;;;27.52;17.48;;;;;;;7.40;90.87;96093.91;4964960;28;20058;-79
2023/12/14 06:10:44;;;;;;;24.85;15.88;;;;;;;7.40;90.60;96099.88;4966369;28;20484;-79
2023/12/14 06:13:12;;;;;;;30.08;17.42;;;;;;;7.41;91.30;96104.13;4961693;28;20046;-79
2023/12/14 06:15:40;;;;;;;12.82;8.60;;;;;;;7.42;91.54;96103.13;4963422;28;20043;-77
2023/12/14 06:18:07;;;;;;;9.52;7.22;;;;;;;7.44;91.56;96115.94;4965609;28;20499;-77
2023/12/14 06:20:35;;;;;;;10.02;6.75;;;;;;;7.41;90.92;96121.44;4954459;29;20114;-77
2023/12/14 06:23:03;;;;;;;11.70;6.72;;;;;;;7.39;90.82;96129.44;4954200;29;20098;-77
2023/12/14 06:25:32;;;;;;;10.27;6.68;;;;;;;7.40;90.49;96136.22;4953860;29;20138;-77
2023/12/14 06:27:59;;;;;;;10.85;7.38;;;;;;;7.40;90.77;96132.81;4953963;29;20055;-77
2023/12/14 06:30:27;;;;;;;10.13;7.72;;;;;;;7.40;91.48;96136.22;4954483;29;20055;-77
2023/12/14 06:32:55;;;;;;;10.73;7.75;;;;;;;7.43;91.41;96148.88;4955450;29;20427;-77
2023/12/14 06:35:23;;;;;;;11.20;7.63;;;;;;;7.43;91.53;96154.06;4955196;29;20051;-77
2023/12/14 06:37:51;;;;;;;8.35;7.03;;;;;;;7.39;90.38;96157.97;4955499;29;20058;-77
2023/12/14 06:40:19;;;;;;;13.57;7.45;;;;;;;7.38;89.73;96158.13;4955712;29;20438;-76
2023/12/14 06:42:49;;;;;;;12.57;7.25;;;;;;;7.37;89.14;96157.34;4955638;29;20062;-77
2023/12/14 06:45:17;;;;;;;12.00;8.27;;;;;;;7.37;89.89;96167.72;4955408;28;20121;-77
2023/12/14 06:47:46;;;;;;;10.73;8.07;;;;;;;7.39;90.88;96170.94;4955407;29;20083;-77
2023/12/14 06:50:14;;;;;;;13.60;8.75;;;;;;;7.43;91.75;96172.22;4955209;29;20048;-76
2023/12/14 06:52:42;;;;;;;11.48;9.13;;;;;;;7.46;91.39;96180.66;4955208;29;20156;-77
2023/12/14 06:55:10;;;;;;;11.43;8.27;;;;;;;7.42;90.45;96193.94;4955655;29;20054;-76
2023/12/14 06:57:38;;;;;;;13.23;8.65;;;;;;;7.38;89.25;96189.28;4954745;29;20058;-77
2023/12/14 07:00:09;;;;;;;12.32;7.75;;;;;;;7.34;88.24;96199.19;4955207;29;20546;-77
2023/12/14 07:02:36;;;;;;;10.13;8.15;;;;;;;7.31;87.54;96191.75;4955589;29;20459;-77
2023/12/14 07:05:05;;;;;;;11.07;8.77;;;;;;;7.31;88.14;96202.13;4955228;29;20077;-77
2023/12/14 07:07:33;;;;;;;10.57;8.00;;;;;;;7.32;89.38;96211.50;4955300;29;20055;-77
2023/12/14 07:10:01;;;;;;;11.32;9.00;;;;;;;7.31;88.43;96219.50;4955299;29;20404;-77
2023/12/14 07:12:29;;;;;;;15.13;8.93;;;;;;;7.26;86.99;96217.41;4955004;29;20540;-77
2023/12/14 07:14:56;;;;;;;12.13;9.93;;;;;;;7.21;86.49;96224.88;4955232;29;20138;-77
2023/12/14 07:17:25;;;;;;;11.50;9.65;;;;;;;7.19;86.55;96242.38;4954808;29;20083;-76
2023/12/14 07:19:53;;;;;;;14.68;9.80;;;;;;;7.20;87.17;96244.03;4954707;29;20856;-77
2023/12/14 07:22:23;;;;;;;13.40;9.82;;;;;;;7.20;87.11;96250.00;4955067;29;20099;-77
2023/12/14 07:24:51;;;;;;;13.43;9.60;;;;;;;7.24;88.99;96247.91;4955038;29;20134;-77
2023/12/14 07:27:26;;;;;;;18.20;10.95;;;;;;;7.32;91.26;96260.81;4954887;29;20047;-77
2023/12/14 07:29:53;;;;;;;11.68;9.48;;;;;;;7.33;91.17;96265.03;4954633;29;20051;-77
2023/12/14 07:32:21;;;;;;;12.18;9.50;;;;;;;7.29;89.72;96263.75;4954667;29;20055;-77
2023/12/14 07:34:50;;;;;;;14.18;10.32;;;;;;;7.24;89.18;96266.06;4955051;28;20066;-77
2023/12/14 07:37:18;;;;;;;27.48;11.18;;;;;;;7.26;90.76;96271.88;4954659;29;20514;-77
2023/12/14 07:39:45;;;;;;;11.65;9.57;;;;;;;7.26;90.21;96277.06;4968116;29;20074;-77
2023/12/14 07:42:19;;;;;;;11.90;9.52;;;;;;;7.27;89.90;96276.09;4966995;29;20047;-77
2023/12/14 07:44:46;;;;;;;16.52;10.73;;;;;;;7.33;91.12;96288.38;4967284;29;20062;-77
2023/12/14 07:47:14;;;;;;;16.55;10.38;;;;;;;7.35;91.06;96286.44;4957491;29;20583;-76
2023/12/14 07:49:42;;;;;;;14.55;10.50;;;;;;;7.35;90.59;96289.03;4955369;29;20067;-76
2023/12/14 07:52:13;;;;;;;13.80;11.02;;;;;;;7.30;88.45;96293.91;4957499;29;20054;-77
2023/12/14 07:54:41;;;;;;;16.73;11.70;;;;;;;7.29;88.77;96294.88;4957236;29;20055;-77
2023/12/14 07:57:09;;;;;;;17.02;11.18;;;;;;;7.26;88.14;96305.63;4953693;29;20055;-77
2023/12/14 07:59:36;;;;;;;19.45;11.30;;;;;;;7.29;89.71;96309.66;4954024;29;20058;-76
2023/12/14 08:02:04;;;;;;;15.57;11.77;;;;;;;7.36;90.85;96316.56;4954653;29;20051;-77
2023/12/14 08:04:33;;;;;;;34.85;13.90;;;;;;;7.36;90.59;96311.38;4954530;29;20043;-77
2023/12/14 08:07:04;;;;;;;17.67;11.35;;;;;;;7.37;91.51;96323.41;4954136;29;20047;-77
2023/12/14 08:09:33;;;;;;;16.60;11.57;;;;;;;7.38;90.42;96319.81;4967286;28;20043;-75
2023/12/14 08:12:00;;;;;;;13.60;10.27;;;;;;;7.38;88.82;96322.41;4977029;29;20054;-76
2023/12/14 08:14:28;;;;;;;16.23;11.82;;;;;;;7.39;89.42;96326.63;4975787;29;20047;-76
2023/12/14 08:16:56;;;;;;;15.20;10.77;;;;;;;7.43;90.52;96333.13;4955490;29;20053;-77
2023/12/14 08:19:23;;;;;;;23.23;12.65;;;;;;;7.46;90.87;96336.34;4954149;29;20404;-77
2023/12/14 08:21:51;;;;;;;15.68;11.18;;;;;;;7.45;90.87;96342.50;4954122;29;20055;-76
2023/12/14 08:24:18;;;;;;;14.80;11.10;;;;;;;7.46;91.01;96341.53;4953795;29;20107;-77
2023/12/14 08:26:47;;;;;;;21.88;12.45;;;;;;;7.49;91.82;96338.59;4958854;29;20491;-77
2023/12/14 08:29:15;;;;;;;22.55;13.35;;;;;;;7.54;92.64;96349.28;4959602;29;20055;-77
2023/12/14 08:31:42;;;;;;;19.73;12.90;;;;;;;7.57;92.01;96349.75;4959160;29;20070;-77
2023/12/14 08:34:11;;;;;;;19.23;12.15;;;;;;;7.59;91.46;96353.00;4958380;29;20055;-77
2023/12/14 08:36:39;;;;;;;17.02;12.18;;;;;;;7.64;92.15;96355.09;4959175;29;20073;-76
2023/12/14 08:39:06;;;;;;;19.70;12.20;;;;;;;7.67;91.28;96359.91;4954783;29;20483;-77
2023/12/14 08:41:34;;;;;;;15.40;11.35;;;;;;;7.72;90.71;96365.44;4954103;29;20095;-76
2023/12/14 08:44:03;;;;;;;14.43;11.38;;;;;;;7.76;90.59;96368.47;4954148;29;20044;-77
2023/12/14 08:46:39;;;;;;;16.40;11.55;;;;;;;7.79;91.29;96371.56;4954159;29;20530;-77
2023/12/14 08:49:07;;;;;;;16.63;11.05;;;;;;;7.79;90.04;96374.16;4953962;29;20055;-76
2023/12/14 08:51:35;;;;;;;14.43;11.25;;;;;;;7.75;89.28;96380.66;4953980;29;20062;-77
2023/12/14 08:54:03;;;;;;;15.55;11.13;;;;;;;7.78;90.30;96387.31;4954134;29;20098;-77
2023/12/14 08:56:30;;;;;;;13.88;10.15;;;;;;;7.80;90.23;96388.75;4953649;29;20118;-77
2023/12/14 08:58:59;;;;;;;13.95;10.68;;;;;;;7.83;89.48;96391.03;4954106;29;20051;-77
2023/12/14 09:01:28;;;;;;;13.23;10.20;;;;;;;7.84;88.14;96397.03;4953819;29;20066;-77
2023/12/14 09:03:55;;;;;;;14.10;11.50;;;;;;;7.85;88.76;96409.03;4955430;29;20048;-75
2023/12/14 09:06:23;;;;;;;14.90;10.35;;;;;;;7.87;88.56;96409.69;4975668;29;20055;-76
2023/12/14 09:08:51;;;;;;;13.55;11.10;;;;;;;7.88;89.29;96403.50;4978013;28;20055;-76
2023/12/14 09:11:19;;;;;;;12.90;9.80;;;;;;;7.89;90.22;96405.09;4962752;29;20119;-77
2023/12/14 09:13:46;;;;;;;15.02;10.68;;;;;;;7.91;90.41;96408.34;4966667;29;20048;-77
2023/12/14 09:16:14;;;;;;;14.60;11.02;;;;;;;7.95;90.02;96414.00;4965564;29;20054;-77
2023/12/14 09:18:43;;;;;;;15.43;9.98;;;;;;;7.96;88.23;96421.66;4956714;29;20055;-77
2023/12/14 09:21:11;;;;;;;17.45;10.65;;;;;;;7.95;87.97;96422.59;4958109;29;20105;-77
2023/12/14 09:23:40;;;;;;;13.27;11.00;;;;;;;8.00;88.90;96432.50;4956842;29;20051;-77
2023/12/14 09:26:08;;;;;;;17.08;11.52;;;;;;;8.08;90.40;96437.66;4957274;29;20107;-77
2023/12/14 09:28:35;;;;;;;15.57;10.88;;;;;;;8.10;89.01;96442.69;4956989;29;20047;-76
2023/12/14 09:31:03;;;;;;;19.85;12.48;;;;;;;8.09;88.32;96451.44;4956800;29;20534;-77
2023/12/14 09:33:34;;;;;;;22.23;14.80;;;;;;;8.13;90.21;96448.34;4956692;29;20077;-77
2023/12/14 09:36:04;;;;;;;21.80;13.48;;;;;;;8.18;90.37;96453.84;4956724;29;20059;-77
2023/12/14 09:38:31;;;;;;;19.63;13.32;;;;;;;8.20;90.79;96454.50;4956365;29;20488;-77
2023/12/14 09:40:59;;;;;;;16.83;10.85;;;;;;;8.25;90.29;96451.38;4956583;29;20073;-77
2023/12/14 09:43:27;;;;;;;16.27;11.02;;;;;;;8.25;89.56;96457.38;4956261;29;20051;-77
2023/12/14 09:45:56;;;;;;;14.88;9.80;;;;;;;8.29;89.26;96477.81;4956698;29;20114;-77
2023/12/14 09:48:24;;;;;;;12.07;9.40;;;;;;;8.28;89.24;96479.59;4956121;29;20106;-77
2023/12/14 09:50:52;;;;;;;14.55;9.60;;;;;;;8.27;88.78;96492.78;4956605;29;20083;-77
2023/12/14 09:53:21;;;;;;;13.90;9.70;;;;;;;8.23;87.26;96487.91;4956078;29;20078;-76
2023/12/14 09:55:49;;;;;;;17.85;12.93;;;;;;;8.21;87.51;96487.28;4969596;28;20038;-77
2023/12/14 09:58:16;;;;;;;17.75;12.15;;;;;;;8.24;88.04;96489.56;4978274;28;20062;-77
2023/12/14 10:00:44;;;;;;;14.68;10.32;;;;;;;8.27;87.62;96487.59;4978064;29;20036;-77
2023/12/14 10:03:20;;;;;;;22.58;13.57;;;;;;;8.27;85.50;96490.19;4963817;29;20055;-77
2023/12/14 10:05:48;;;;;;;17.30;12.13;;;;;;;8.30;87.40;96497.63;4956208;29;20085;-77
2023/12/14 10:08:17;;;;;;;13.05;9.70;;;;;;;8.33;86.97;96505.09;4956032;29;20487;-76
2023/12/14 10:10:48;;;;;;;12.13;9.85;;;;;;;8.36;85.72;96509.97;4955866;29;20058;-77
2023/12/14 10:13:16;;;;;;;14.80;12.07;;;;;;;8.37;85.41;96511.56;4955965;29;20067;-77
2023/12/14 10:15:44;;;;;;;17.23;10.68;;;;;;;8.34;84.36;96507.53;4955858;29;20289;-77
2023/12/14 10:18:12;;;;;;;12.15;10.50;;;;;;;8.34;85.59;96510.13;4955562;29;20122;-77
2023/12/14 10:20:40;;;;;;;13.07;10.32;;;;;;;8.37;85.38;96512.38;4955489;28;20499;-77
2023/12/14 10:23:08;;;;;;;15.43;11.88;;;;;;;8.39;86.19;96514.81;4955704;29;20069;-77
2023/12/14 10:25:36;;;;;;;13.95;11.20;;;;;;;8.39;85.54;96514.81;4955694;29;20062;-77
2023/12/14 10:28:05;;;;;;;15.30;10.90;;;;;;;8.36;85.02;96518.56;4955798;29;20060;-77
2023/12/14 10:30:33;;;;;;;13.32;11.13;;;;;;;8.34;85.13;96520.53;4955777;29;20119;-77
2023/12/14 10:33:04;;;;;;;16.33;13.00;;;;;;;8.33;84.93;96521.50;4955762;29;20055;-77
2023/12/14 10:35:33;;;;;;;17.15;12.32;;;;;;;8.34;85.65;96520.53;4955504;29;20057;-77
2023/12/14 10:38:03;;;;;;;17.77;12.50;;;;;;;8.38;86.55;96523.59;4955821;29;20487;-77
2023/12/14 10:40:32;;;;;;;17.25;14.05;;;;;;;8.38;85.04;96524.41;4956160;29;20086;-77
2023/12/14 10:43:00;;;;;;;21.45;15.18;;;;;;;8.38;85.63;96526.19;4955291;29;20052;-77
2023/12/14 10:45:33;;;;;;;22.27;14.85;;;;;;;8.36;85.72;96525.56;4955436;29;20051;-77
2023/12/14 10:48:03;;;;;;;14.63;11.63;;;;;;;8.33;83.63;96526.72;4955214;29;20071;-77
2023/12/14 10:50:34;;;;;;;16.70;12.75;;;;;;;8.29;83.88;96522.00;4955358;29;20059;-77
2023/12/14 10:53:04;;;;;;;21.55;14.45;;;;;;;8.27;83.87;96531.78;4955554;29;20051;-77
2023/12/14 10:55:41;;;;;;;31.48;18.90;;;;;;;8.25;83.54;96535.34;4955263;29;20480;-77
2023/12/14 10:58:09;;;;;;;28.85;19.35;;;;;;;8.26;84.86;96536.13;4954612;29;20728;-77
2023/12/14 11:00:39;;;;;;;35.95;17.67;;;;;;;8.28;84.95;96546.38;4954896;29;20078;-77
2023/12/14 11:03:07;;;;;;;25.02;16.23;;;;;;;8.30;84.70;96545.22;4955211;29;20147;-76
2023/12/14 11:05:36;;;;;;;19.10;13.05;;;;;;;8.30;83.44;96549.63;4954980;29;20495;-77
2023/12/14 11:08:09;;;;;;;19.20;13.73;;;;;;;8.28;83.65;96549.78;4954814;29;20073;-77
2023/12/14 11:10:38;;;;;;;19.45;14.48;;;;;;;8.31;84.16;96564.22;4954903;29;20475;-77
2023/12/14 11:13:10;;;;;;;23.63;15.90;;;;;;;8.32;84.16;96563.25;4955190;29;20055;-77
2023/12/14 11:15:39;;;;;;;14.85;11.45;;;;;;;8.30;83.12;96563.41;4955100;29;20468;-77
2023/12/14 11:18:25;;;;;;;18.38;12.32;;;;;;;8.32;87.01;96569.25;4954797;29;20118;-77
2023/12/14 11:21:00;;;;;;;18.40;13.13;;;;;;;8.32;86.10;96571.06;4954777;29;20051;-77
2023/12/14 11:23:33;;;;;;;21.08;12.82;;;;;;;8.34;87.11;96580.28;4954668;29;20055;-77
2023/12/14 11:26:04;;;;;;;18.50;12.73;;;;;;;8.38;86.77;96580.78;4954767;29;20051;-76
2023/12/14 11:28:33;;;;;;;18.48;11.70;;;;;;;8.37;86.10;96573.94;4954364;29;20138;-77
2023/12/14 11:31:06;;;;;;;17.95;11.00;;;;;;;8.38;85.60;96568.59;4953713;28;20149;-77
2023/12/14 11:33:35;;;;;;;16.63;11.77;;;;;;;8.41;86.02;96575.25;4954832;29;20047;-77
2023/12/14 11:36:10;;;;;;;15.65;11.10;;;;;;;8.42;86.22;96572.50;4954890;29;20051;-76
2023/12/14 11:38:37;;;;;;;16.20;11.23;;;;;;;8.44;85.31;96586.16;4954267;29;20055;-77